createdAt,value
2018-04-15T00:00:02.343Z,1011.27
2018-04-15T00:01:02.302Z,1011.30
2018-04-15T00:02:02.305Z,1011.31
2018-04-15T00:03:02.235Z,1011.29
2018-04-15T00:04:02.192Z,1011.27
2018-04-15T00:05:02.158Z,1011.28
2018-04-15T00:06:02.125Z,1011.26
2018-04-15T00:07:02.078Z,1011.23
2018-04-15T00:08:02.070Z,1011.28
2018-04-15T00:09:02.008Z,1011.25
2018-04-15T00:10:01.960Z,1011.24
2018-04-15T00:11:01.942Z,1011.23
2018-04-15T00:12:01.931Z,1011.26
2018-04-15T00:13:01.847Z,1011.20
2018-04-15T00:14:01.816Z,1011.20
2018-04-15T00:15:01.772Z,1011.25
2018-04-15T00:16:01.744Z,1011.24
2018-04-15T00:17:01.707Z,1011.24
2018-04-15T00:18:01.692Z,1011.24
2018-04-15T00:19:01.633Z,1011.25
2018-04-15T00:20:01.592Z,1011.23
2018-04-15T00:21:01.548Z,1011.26
2018-04-15T00:22:01.516Z,1011.24
2018-04-15T00:23:01.479Z,1011.26
2018-04-15T00:24:01.466Z,1011.24
2018-04-15T00:25:01.410Z,1011.29
2018-04-15T00:26:01.380Z,1011.31
2018-04-15T00:27:01.318Z,1011.24
2018-04-15T00:28:01.283Z,1011.26
2018-04-15T00:29:01.287Z,1011.22
2018-04-15T00:30:01.205Z,1011.19
2018-04-15T00:31:01.175Z,1011.17
2018-04-15T00:32:01.136Z,1011.18
2018-04-15T00:33:01.100Z,1011.18
2018-04-15T00:34:01.058Z,1011.14
2018-04-15T00:35:01.044Z,1011.15
2018-04-15T00:36:00.986Z,1011.15
2018-04-15T00:37:00.951Z,1011.12
2018-04-15T00:38:00.912Z,1011.14
2018-04-15T00:39:00.893Z,1011.11
2018-04-15T00:40:00.831Z,1011.10
2018-04-15T00:41:00.792Z,1011.11
2018-04-15T00:42:00.749Z,1011.08
2018-04-15T00:43:00.723Z,1011.08
2018-04-15T00:44:00.677Z,1011.05
2018-04-15T00:45:01.094Z,1011.04
2018-04-15T00:46:00.600Z,1011.04
2018-04-15T00:47:00.554Z,1011.01
2018-04-15T00:48:00.532Z,1011.01
2018-04-15T00:49:00.481Z,1011.02
2018-04-15T00:50:00.440Z,1010.97
2018-04-15T00:51:00.443Z,1010.99
2018-04-15T00:52:00.371Z,1010.97
2018-04-15T00:53:00.340Z,1011.01
2018-04-15T00:54:00.294Z,1010.96
2018-04-15T00:55:00.268Z,1010.97
2018-04-15T00:56:00.237Z,1010.97
2018-04-15T00:57:00.174Z,1010.95
2018-04-15T00:58:00.147Z,1010.96
2018-04-15T00:59:00.104Z,1010.95
2018-04-15T01:00:00.074Z,1010.92
2018-04-15T01:01:00.063Z,1010.94
2018-04-15T01:01:59.992Z,1010.94
2018-04-15T01:02:59.975Z,1010.91
2018-04-15T01:03:59.910Z,1010.91
2018-04-15T01:04:59.875Z,1010.89
2018-04-15T01:05:59.838Z,1010.86
2018-04-15T01:06:59.825Z,1010.81
2018-04-15T01:07:59.764Z,1010.85
2018-04-15T01:08:59.720Z,1010.79
2018-04-15T01:09:59.691Z,1010.77
2018-04-15T01:10:59.646Z,1010.78
2018-04-15T01:11:59.638Z,1010.78
2018-04-15T01:12:59.573Z,1010.77
2018-04-15T01:13:59.534Z,1010.75
2018-04-15T01:14:59.500Z,1010.71
2018-04-15T01:15:59.452Z,1010.76
2018-04-15T01:16:59.461Z,1010.71
2018-04-15T01:17:59.379Z,1010.74
2018-04-15T01:18:59.344Z,1010.72
2018-04-15T01:19:59.307Z,1010.74
2018-04-15T01:20:59.274Z,1010.71
2018-04-15T01:21:59.222Z,1010.70
2018-04-15T01:22:59.222Z,1010.69
2018-04-15T01:23:59.141Z,1010.70
2018-04-15T01:24:59.147Z,1010.73
2018-04-15T01:25:59.070Z,1010.72
2018-04-15T01:26:59.038Z,1010.70
2018-04-15T01:27:59.023Z,1010.71
2018-04-15T01:28:58.969Z,1010.67
2018-04-15T01:29:58.928Z,1010.65
2018-04-15T01:30:58.882Z,1010.61
2018-04-15T01:31:58.840Z,1010.65
2018-04-15T01:32:58.803Z,1010.64
2018-04-15T01:33:58.803Z,1010.63
2018-04-15T01:34:58.724Z,1010.61
2018-04-15T01:35:58.692Z,1010.63
2018-04-15T01:36:58.644Z,1010.64
2018-04-15T01:37:58.615Z,1010.64
2018-04-15T01:38:58.605Z,1010.64
2018-04-15T01:39:58.541Z,1010.61
2018-04-15T01:40:58.489Z,1010.65
2018-04-15T01:41:58.459Z,1010.57
2018-04-15T01:42:58.411Z,1010.56
2018-04-15T01:43:58.393Z,1010.56
2018-04-15T01:44:58.381Z,1010.53
2018-04-15T01:45:58.307Z,1010.51
2018-04-15T01:46:58.275Z,1010.49
2018-04-15T01:47:58.233Z,1010.49
2018-04-15T01:48:58.194Z,1010.49
2018-04-15T01:49:58.176Z,1010.50
2018-04-15T01:50:58.107Z,1010.50
2018-04-15T01:51:58.074Z,1010.48
2018-04-15T01:52:58.045Z,1010.47
2018-04-15T01:53:57.993Z,1010.40
2018-04-15T01:54:57.964Z,1010.43
2018-04-15T01:55:57.973Z,1010.39
2018-04-15T01:56:57.880Z,1010.42
2018-04-15T01:57:57.836Z,1010.39
2018-04-15T01:58:57.814Z,1010.39
2018-04-15T01:59:57.760Z,1010.41
2018-04-15T02:00:57.731Z,1010.42
2018-04-15T02:01:57.736Z,1010.35
2018-04-15T02:02:57.645Z,1010.34
2018-04-15T02:03:57.617Z,1010.35
2018-04-15T02:04:57.575Z,1010.35
2018-04-15T02:05:57.546Z,1010.34
2018-04-15T02:06:57.523Z,1010.35
2018-04-15T02:07:57.472Z,1010.30
2018-04-15T02:08:57.418Z,1010.35
2018-04-15T02:09:57.379Z,1010.30
2018-04-15T02:10:57.332Z,1010.33
2018-04-15T02:11:57.317Z,1010.31
2018-04-15T02:12:57.286Z,1010.30
2018-04-15T02:13:57.222Z,1010.32
2018-04-15T02:14:57.178Z,1010.27
2018-04-15T02:15:57.146Z,1010.27
2018-04-15T02:16:57.111Z,1010.27
2018-04-15T02:17:57.074Z,1010.21
2018-04-15T02:18:57.078Z,1010.20
2018-04-15T02:19:56.994Z,1010.24
2018-04-15T02:20:56.947Z,1010.18
2018-04-15T02:21:56.919Z,1010.22
2018-04-15T02:22:56.878Z,1010.20
2018-04-15T02:23:56.873Z,1010.21
2018-04-15T02:24:56.818Z,1010.21
2018-04-15T02:25:56.768Z,1010.24
2018-04-15T02:26:56.722Z,1010.22
2018-04-15T02:27:56.691Z,1010.23
2018-04-15T02:28:56.663Z,1010.24
2018-04-15T02:29:56.635Z,1010.22
2018-04-15T02:30:56.575Z,1010.25
2018-04-15T02:31:56.527Z,1010.26
2018-04-15T02:32:56.488Z,1010.23
2018-04-15T02:33:56.456Z,1010.23
2018-04-15T02:34:56.413Z,1010.22
2018-04-15T02:35:56.397Z,1010.20
2018-04-15T02:36:56.341Z,1010.17
2018-04-15T02:37:56.296Z,1010.17
2018-04-15T02:38:56.255Z,1010.14
2018-04-15T02:39:56.245Z,1010.16
2018-04-15T02:40:56.175Z,1010.11
2018-04-15T02:41:56.145Z,1010.07
2018-04-15T02:42:56.093Z,1010.07
2018-04-15T02:43:56.067Z,1010.10
2018-04-15T02:44:56.022Z,1010.11
2018-04-15T02:45:56.058Z,1010.12
2018-04-15T02:46:55.937Z,1010.13
2018-04-15T02:47:55.915Z,1010.18
2018-04-15T02:48:55.872Z,1010.14
2018-04-15T02:49:55.831Z,1010.15
2018-04-15T02:50:55.826Z,1010.13
2018-04-15T02:51:55.755Z,1010.18
2018-04-15T02:52:55.707Z,1010.26
2018-04-15T02:53:55.679Z,1010.21
2018-04-15T02:54:55.639Z,1010.22
2018-04-15T02:55:55.605Z,1010.19
2018-04-15T02:56:55.601Z,1010.19
2018-04-15T02:57:55.529Z,1010.20
2018-04-15T02:58:55.482Z,1010.19
2018-04-15T02:59:55.470Z,1010.18
2018-04-15T03:00:55.410Z,1010.17
2018-04-15T03:01:55.406Z,1010.15
2018-04-15T03:02:55.330Z,1010.09
2018-04-15T03:03:55.303Z,1010.08
2018-04-15T03:04:55.245Z,1010.07
2018-04-15T03:05:55.219Z,1010.07
2018-04-15T03:06:55.170Z,1010.12
2018-04-15T03:07:55.175Z,1010.10
2018-04-15T03:08:55.119Z,1010.07
2018-04-15T03:09:55.048Z,1010.08
2018-04-15T03:10:55.032Z,1010.07
2018-04-15T03:11:55.001Z,1010.12
2018-04-15T03:12:54.978Z,1010.08
2018-04-15T03:13:54.953Z,1010.11
2018-04-15T03:14:54.860Z,1010.13
2018-04-15T03:15:54.835Z,1010.11
2018-04-15T03:16:54.807Z,1010.04
2018-04-15T03:17:54.759Z,1010.10
2018-04-15T03:18:54.759Z,1010.00
2018-04-15T03:19:54.661Z,1010.05
2018-04-15T03:20:54.641Z,1010.03
2018-04-15T03:21:54.615Z,1009.96
2018-04-15T03:22:54.588Z,1009.99
2018-04-15T03:23:54.540Z,1009.99
2018-04-15T03:24:54.526Z,1010.00
2018-04-15T03:25:54.453Z,1009.97
2018-04-15T03:26:54.408Z,1009.97
2018-04-15T03:27:54.370Z,1009.94
2018-04-15T03:28:54.328Z,1009.97
2018-04-15T03:29:54.369Z,1009.96
2018-04-15T03:30:54.287Z,1009.98
2018-04-15T03:31:54.208Z,1009.95
2018-04-15T03:32:54.168Z,1009.98
2018-04-15T03:33:54.161Z,1009.93
2018-04-15T03:34:54.109Z,1009.88
2018-04-15T03:35:54.109Z,1009.83
2018-04-15T03:36:54.052Z,1009.73
2018-04-15T03:37:54.001Z,1009.76
2018-04-15T03:38:53.936Z,1009.73
2018-04-15T03:39:53.904Z,1009.74
2018-04-15T03:40:53.881Z,1009.72
2018-04-15T03:41:53.852Z,1009.73
2018-04-15T03:42:53.786Z,1009.77
2018-04-15T03:43:53.774Z,1009.74
2018-04-15T03:44:53.686Z,1009.69
2018-04-15T03:45:53.674Z,1009.69
2018-04-15T03:46:53.662Z,1009.70
2018-04-15T03:47:53.615Z,1009.75
2018-04-15T03:48:53.550Z,1009.78
2018-04-15T03:49:53.497Z,1009.81
2018-04-15T03:50:53.451Z,1009.80
2018-04-15T03:51:53.447Z,1009.85
2018-04-15T03:52:53.417Z,1009.83
2018-04-15T03:53:53.416Z,1009.84
2018-04-15T03:54:53.323Z,1009.84
2018-04-15T03:55:53.282Z,1009.85
2018-04-15T03:56:53.225Z,1009.85
2018-04-15T03:57:53.228Z,1009.87
2018-04-15T03:58:53.414Z,1009.89
2018-04-15T03:59:53.146Z,1009.89
2018-04-15T04:00:53.102Z,1009.86
2018-04-15T04:01:53.023Z,1009.88
2018-04-15T04:02:52.975Z,1009.90
2018-04-15T04:03:53.013Z,1009.91
2018-04-15T04:04:52.911Z,1009.87
2018-04-15T04:05:52.879Z,1009.90
2018-04-15T04:06:52.828Z,1009.92
2018-04-15T04:07:52.787Z,1009.92
2018-04-15T04:08:52.753Z,1009.92
2018-04-15T04:09:52.796Z,1009.91
2018-04-15T04:10:52.673Z,1009.95
2018-04-15T04:11:52.634Z,1009.95
2018-04-15T04:12:52.626Z,1009.94
2018-04-15T04:13:52.566Z,1009.95
2018-04-15T04:14:52.530Z,1009.96
2018-04-15T04:15:52.517Z,1009.94
2018-04-15T04:16:52.458Z,1009.96
2018-04-15T04:17:52.401Z,1009.97
2018-04-15T04:18:52.362Z,1009.94
2018-04-15T04:19:52.340Z,1009.97
2018-04-15T04:20:52.337Z,1009.96
2018-04-15T04:21:52.245Z,1009.94
2018-04-15T04:22:52.219Z,1009.95
2018-04-15T04:23:52.173Z,1009.95
2018-04-15T04:24:52.169Z,1009.93
2018-04-15T04:25:52.154Z,1009.91
2018-04-15T04:26:52.041Z,1009.92
2018-04-15T04:27:52.015Z,1009.89
2018-04-15T04:28:51.975Z,1009.92
2018-04-15T04:29:51.950Z,1009.91
2018-04-15T04:30:51.910Z,1009.92
2018-04-15T04:31:51.910Z,1009.92
2018-04-15T04:32:51.822Z,1009.93
2018-04-15T04:33:51.775Z,1009.90
2018-04-15T04:34:51.747Z,1009.89
2018-04-15T04:35:51.718Z,1009.92
2018-04-15T04:36:51.706Z,1009.90
2018-04-15T04:37:51.650Z,1009.89
2018-04-15T04:38:51.573Z,1009.85
2018-04-15T04:39:51.542Z,1009.86
2018-04-15T04:40:51.518Z,1009.82
2018-04-15T04:41:51.525Z,1009.83
2018-04-15T04:42:52.017Z,1009.82
2018-04-15T04:43:51.412Z,1009.81
2018-04-15T04:44:51.355Z,1009.79
2018-04-15T04:45:51.387Z,1009.82
2018-04-15T04:46:51.305Z,1009.76
2018-04-15T04:47:51.315Z,1009.77
2018-04-15T04:48:51.252Z,1009.80
2018-04-15T04:49:51.233Z,1009.79
2018-04-15T04:50:51.143Z,1009.81
2018-04-15T04:51:51.086Z,1009.80
2018-04-15T04:52:51.052Z,1009.77
2018-04-15T04:53:51.048Z,1009.75
2018-04-15T04:54:50.958Z,1009.76
2018-04-15T04:55:50.925Z,1009.73
2018-04-15T04:56:50.902Z,1009.76
2018-04-15T04:57:50.881Z,1009.74
2018-04-15T04:58:50.835Z,1009.74
2018-04-15T04:59:50.756Z,1009.74
2018-04-15T05:00:50.724Z,1009.70
2018-04-15T05:01:50.693Z,1009.70
2018-04-15T05:02:50.632Z,1009.73
2018-04-15T05:03:50.651Z,1009.72
2018-04-15T05:04:50.563Z,1009.69
2018-04-15T05:05:50.523Z,1009.70
2018-04-15T05:06:50.508Z,1009.74
2018-04-15T05:07:50.471Z,1009.76
2018-04-15T05:08:50.425Z,1009.77
2018-04-15T05:09:50.423Z,1009.73
2018-04-15T05:10:50.365Z,1009.74
2018-04-15T05:11:50.295Z,1009.72
2018-04-15T05:12:50.255Z,1009.73
2018-04-15T05:13:50.225Z,1009.71
2018-04-15T05:14:50.210Z,1009.71
2018-04-15T05:15:50.178Z,1009.71
2018-04-15T05:16:50.109Z,1009.73
2018-04-15T05:17:50.070Z,1009.74
2018-04-15T05:18:50.086Z,1009.70
2018-04-15T05:19:50.026Z,1009.68
2018-04-15T05:20:49.980Z,1009.69
2018-04-15T05:21:50.014Z,1009.71
2018-04-15T05:22:49.879Z,1009.70
2018-04-15T05:23:49.837Z,1009.65
2018-04-15T05:24:49.802Z,1009.61
2018-04-15T05:25:49.839Z,1009.62
2018-04-15T05:26:49.727Z,1009.57
2018-04-15T05:27:49.673Z,1009.61
2018-04-15T05:28:49.648Z,1009.60
2018-04-15T05:29:49.613Z,1009.61
2018-04-15T05:30:49.556Z,1009.60
2018-04-15T05:31:49.547Z,1009.63
2018-04-15T05:32:49.500Z,1009.58
2018-04-15T05:33:49.465Z,1009.62
2018-04-15T05:34:49.425Z,1009.62
2018-04-15T05:35:49.368Z,1009.61
2018-04-15T05:36:49.322Z,1009.60
2018-04-15T05:37:49.321Z,1009.58
2018-04-15T05:38:49.266Z,1009.58
2018-04-15T05:39:50.027Z,1009.56
2018-04-15T05:40:49.214Z,1009.57
2018-04-15T05:41:49.129Z,1009.62
2018-04-15T05:42:49.134Z,1009.54
2018-04-15T05:43:49.058Z,1009.55
2018-04-15T05:44:49.020Z,1009.57
2018-04-15T05:45:48.954Z,1009.59
2018-04-15T05:46:48.924Z,1009.54
2018-04-15T05:47:48.901Z,1009.51
2018-04-15T05:48:48.877Z,1009.52
2018-04-15T05:49:48.807Z,1009.50
2018-04-15T05:50:48.776Z,1009.45
2018-04-15T05:51:48.756Z,1009.45
2018-04-15T05:52:48.714Z,1009.42
2018-04-15T05:53:48.689Z,1009.45
2018-04-15T05:54:48.647Z,1009.39
2018-04-15T05:55:48.575Z,1009.42
2018-04-15T05:56:48.550Z,1009.43
2018-04-15T05:57:48.515Z,1009.46
2018-04-15T05:58:48.482Z,1009.50
2018-04-15T05:59:48.450Z,1009.48
2018-04-15T06:00:48.381Z,1009.47
2018-04-15T06:01:48.353Z,1009.46
2018-04-15T06:02:48.301Z,1009.46
2018-04-15T06:03:48.297Z,1009.43
2018-04-15T06:04:48.279Z,1009.43
2018-04-15T06:05:48.256Z,1009.40
2018-04-15T06:06:48.150Z,1009.38
2018-04-15T06:07:48.182Z,1009.37
2018-04-15T06:08:48.091Z,1009.36
2018-04-15T06:09:48.083Z,1009.33
2018-04-15T06:10:48.003Z,1009.28
2018-04-15T06:11:47.967Z,1009.27
2018-04-15T06:12:47.920Z,1009.23
2018-04-15T06:13:48.004Z,1009.22
2018-04-15T06:14:47.947Z,1009.19
2018-04-15T06:15:47.820Z,1009.19
2018-04-15T06:16:47.787Z,1009.17
2018-04-15T06:17:47.727Z,1009.23
2018-04-15T06:18:47.672Z,1009.25
2018-04-15T06:19:47.636Z,1009.22
2018-04-15T06:20:47.652Z,1009.20
2018-04-15T06:21:47.557Z,1009.17
2018-04-15T06:22:47.520Z,1009.16
2018-04-15T06:23:47.486Z,1009.08
2018-04-15T06:24:47.476Z,1009.06
2018-04-15T06:25:47.538Z,1009.06
2018-04-15T06:26:47.479Z,1008.99
2018-04-15T06:27:47.386Z,1008.98
2018-04-15T06:28:47.363Z,1008.97
2018-04-15T06:29:47.290Z,1008.91
2018-04-15T06:30:47.214Z,1008.93
2018-04-15T06:31:47.239Z,1008.89
2018-04-15T06:32:47.145Z,1008.91
2018-04-15T06:33:47.177Z,1008.88
2018-04-15T06:34:47.107Z,1008.90
2018-04-15T06:35:47.033Z,1008.88
2018-04-15T06:36:47.001Z,1008.87
2018-04-15T06:37:46.982Z,1008.91
2018-04-15T06:38:47.047Z,1008.90
2018-04-15T06:39:46.868Z,1008.85
2018-04-15T06:40:46.847Z,1008.85
2018-04-15T06:41:46.791Z,1008.80
2018-04-15T06:42:46.768Z,1008.79
2018-04-15T06:43:46.761Z,1008.76
2018-04-15T06:44:46.662Z,1008.80
2018-04-15T06:45:46.660Z,1008.77
2018-04-15T06:46:46.592Z,1008.80
2018-04-15T06:47:46.547Z,1008.80
2018-04-15T06:48:46.556Z,1008.88
2018-04-15T06:49:46.477Z,1008.87
2018-04-15T06:50:46.441Z,1008.86
2018-04-15T06:51:46.391Z,1008.87
2018-04-15T06:52:46.388Z,1008.89
2018-04-15T06:53:46.318Z,1008.87
2018-04-15T06:54:46.313Z,1008.88
2018-04-15T06:55:46.262Z,1008.82
2018-04-15T06:56:46.222Z,1008.84
2018-04-15T06:57:46.154Z,1008.83
2018-04-15T06:58:46.120Z,1008.83
2018-04-15T06:59:46.086Z,1008.83
2018-04-15T07:00:46.081Z,1008.77
2018-04-15T07:01:46.008Z,1008.83
2018-04-15T07:02:45.966Z,1008.83
2018-04-15T07:03:45.957Z,1008.80
2018-04-15T07:04:45.917Z,1008.79
2018-04-15T07:05:45.903Z,1008.80
2018-04-15T07:06:45.825Z,1008.77
2018-04-15T07:07:45.835Z,1008.76
2018-04-15T07:08:45.752Z,1008.77
2018-04-15T07:09:45.727Z,1008.75
2018-04-15T07:10:45.688Z,1008.76
2018-04-15T07:11:45.674Z,1008.76
2018-04-15T07:12:45.586Z,1008.73
2018-04-15T07:13:45.554Z,1008.77
2018-04-15T07:14:45.523Z,1008.74
2018-04-15T07:15:45.471Z,1008.73
2018-04-15T07:16:45.461Z,1008.71
2018-04-15T07:17:45.401Z,1008.72
2018-04-15T07:18:45.361Z,1008.69
2018-04-15T07:19:45.325Z,1008.67
2018-04-15T07:20:45.292Z,1008.65
2018-04-15T07:21:45.295Z,1008.65
2018-04-15T07:22:45.233Z,1008.64
2018-04-15T07:23:45.166Z,1008.60
2018-04-15T07:24:45.124Z,1008.66
2018-04-15T07:25:45.097Z,1008.63
2018-04-15T07:26:45.052Z,1008.62
2018-04-15T07:27:45.064Z,1008.67
2018-04-15T07:28:44.985Z,1008.65
2018-04-15T07:29:44.944Z,1008.68
2018-04-15T07:30:44.911Z,1008.65
2018-04-15T07:31:44.869Z,1008.63
2018-04-15T07:32:44.830Z,1008.82
2018-04-15T07:33:44.854Z,1008.92
2018-04-15T07:34:44.759Z,1008.99
2018-04-15T07:35:44.723Z,1009.02
2018-04-15T07:36:44.674Z,1009.02
2018-04-15T07:37:44.657Z,1008.93
2018-04-15T07:38:44.636Z,1008.88
2018-04-15T07:39:44.568Z,1008.83
2018-04-15T07:40:44.537Z,1008.90
2018-04-15T07:41:44.497Z,1009.19
2018-04-15T07:42:44.456Z,1009.15
2018-04-15T07:43:44.435Z,1009.07
2018-04-15T07:44:44.411Z,1009.56
2018-04-15T07:45:44.343Z,1009.06
2018-04-15T07:46:44.328Z,1009.04
2018-04-15T07:47:44.276Z,1008.99
2018-04-15T07:48:44.230Z,1008.99
2018-04-15T07:49:44.236Z,1009.01
2018-04-15T07:50:44.158Z,1008.96
2018-04-15T07:51:44.136Z,1008.85
2018-04-15T07:52:44.089Z,1008.79
2018-04-15T07:53:44.063Z,1008.82
2018-04-15T07:54:44.021Z,1008.80
2018-04-15T07:55:44.017Z,1008.91
2018-04-15T07:56:43.950Z,1009.04
2018-04-15T07:57:43.916Z,1009.34
2018-04-15T07:58:43.869Z,1009.54
2018-04-15T07:59:43.844Z,1009.57
2018-04-15T08:00:43.805Z,1009.11
2018-04-15T08:01:43.801Z,1008.83
2018-04-15T08:02:43.732Z,1008.83
2018-04-15T08:03:43.703Z,1008.78
2018-04-15T08:04:43.669Z,1008.96
2018-04-15T08:05:43.625Z,1008.82
2018-04-15T08:06:43.625Z,1008.92
2018-04-15T08:07:43.570Z,1008.70
2018-04-15T08:08:43.524Z,1008.74
2018-04-15T08:09:43.493Z,1009.45
2018-04-15T08:10:43.449Z,1008.75
2018-04-15T08:11:43.419Z,1009.35
2018-04-15T08:12:43.420Z,1009.35
2018-04-15T08:13:43.360Z,1009.36
2018-04-15T08:14:43.317Z,1009.47
2018-04-15T08:15:43.275Z,1009.50
2018-04-15T08:16:43.240Z,1009.54
2018-04-15T08:17:43.214Z,1009.52
2018-04-15T08:18:43.207Z,1009.55
2018-04-15T08:19:43.150Z,1009.58
2018-04-15T08:20:43.108Z,1009.42
2018-04-15T08:21:43.085Z,1009.58
2018-04-15T08:22:43.044Z,1009.53
2018-04-15T08:23:43.043Z,1009.55
2018-04-15T08:24:42.978Z,1009.56
2018-04-15T08:25:42.949Z,1009.62
2018-04-15T08:26:42.938Z,1009.60
2018-04-15T08:27:42.878Z,1009.59
2018-04-15T08:28:42.855Z,1009.56
2018-04-15T08:29:42.870Z,1009.53
2018-04-15T08:30:42.787Z,1009.46
2018-04-15T08:31:42.763Z,1009.16
2018-04-15T08:32:42.737Z,1009.45
2018-04-15T08:33:42.692Z,1009.51
2018-04-15T08:34:42.667Z,1009.16
2018-04-15T08:35:42.667Z,1008.95
2018-04-15T08:36:42.604Z,1009.47
2018-04-15T08:37:42.570Z,1009.52
2018-04-15T08:38:42.551Z,1009.40
2018-04-15T08:39:42.513Z,1009.35
2018-04-15T08:40:42.517Z,1009.33
2018-04-15T08:41:42.461Z,1009.35
2018-04-15T08:42:42.419Z,1009.32
2018-04-15T08:43:42.393Z,1009.31
2018-04-15T08:44:42.370Z,1009.34
2018-04-15T08:45:42.330Z,1009.30
2018-04-15T08:46:42.340Z,1009.24
2018-04-15T08:47:42.266Z,1009.31
2018-04-15T08:48:42.243Z,1009.35
2018-04-15T08:49:42.231Z,1008.83
2018-04-15T08:50:42.182Z,1008.90
2018-04-15T08:51:42.150Z,1008.87
2018-04-15T08:52:42.150Z,1008.76
2018-04-15T08:53:42.098Z,1008.68
2018-04-15T08:54:42.053Z,1008.60
2018-04-15T08:55:42.039Z,1008.66
2018-04-15T08:56:42.006Z,1009.20
2018-04-15T08:57:42.001Z,1008.63
2018-04-15T08:58:41.940Z,1008.62
2018-04-15T08:59:41.909Z,1008.55
2018-04-15T09:00:41.917Z,1008.50
2018-04-15T09:01:41.857Z,1008.54
2018-04-15T09:02:41.824Z,1009.11
2018-04-15T09:03:41.817Z,1008.57
2018-04-15T09:04:41.752Z,1009.03
2018-04-15T09:05:41.720Z,1009.03
2018-04-15T09:06:41.688Z,1008.95
2018-04-15T09:07:41.648Z,1008.97
2018-04-15T09:08:41.627Z,1008.91
2018-04-15T09:09:41.635Z,1008.94
2018-04-15T09:10:41.556Z,1008.91
2018-04-15T09:11:41.522Z,1008.93
2018-04-15T09:12:41.491Z,1008.92
2018-04-15T09:13:41.460Z,1008.95
2018-04-15T09:14:41.474Z,1008.93
2018-04-15T09:15:41.411Z,1008.93
2018-04-15T09:16:41.375Z,1008.92
2018-04-15T09:17:41.345Z,1008.94
2018-04-15T09:18:41.308Z,1008.94
2018-04-15T09:19:41.268Z,1008.96
2018-04-15T09:20:41.277Z,1008.96
2018-04-15T09:21:41.226Z,1009.02
2018-04-15T09:22:41.185Z,1009.04
2018-04-15T09:23:41.168Z,1009.05
2018-04-15T09:24:41.129Z,1009.06
2018-04-15T09:25:41.103Z,1009.09
2018-04-15T09:26:41.097Z,1009.13
2018-04-15T09:27:41.034Z,1008.99
2018-04-15T09:28:41.007Z,1008.90
2018-04-15T09:29:40.974Z,1008.98
2018-04-15T09:30:40.957Z,1009.07
2018-04-15T09:31:40.915Z,1009.07
2018-04-15T09:32:40.916Z,1009.04
2018-04-15T09:33:40.877Z,1009.14
2018-04-15T09:34:40.837Z,1009.04
2018-04-15T09:35:40.801Z,1009.09
2018-04-15T09:36:40.794Z,1009.02
2018-04-15T09:37:40.759Z,1009.01
2018-04-15T09:38:40.718Z,1009.07
2018-04-15T09:39:40.682Z,1009.11
2018-04-15T09:40:40.659Z,1009.07
2018-04-15T09:41:40.634Z,1008.36
2018-04-15T09:42:40.635Z,1008.70
2018-04-15T09:43:40.576Z,1009.51
2018-04-15T09:44:40.544Z,1008.79
2018-04-15T09:45:40.505Z,1009.28
2018-04-15T09:46:40.483Z,1009.29
2018-04-15T09:47:40.475Z,1009.16
2018-04-15T09:48:40.458Z,1009.22
2018-04-15T09:49:40.404Z,1009.22
2018-04-15T09:50:40.374Z,1009.18
2018-04-15T09:51:40.339Z,1009.20
2018-04-15T09:52:40.342Z,1008.71
2018-04-15T09:53:40.282Z,1008.45
2018-04-15T09:54:40.311Z,1008.14
2018-04-15T09:55:40.238Z,1009.16
2018-04-15T09:56:40.211Z,1009.16
2018-04-15T09:57:40.171Z,1008.14
2018-04-15T09:58:40.137Z,1008.32
2018-04-15T09:59:40.125Z,1009.27
2018-04-15T10:00:40.115Z,1009.37
2018-04-15T10:01:40.050Z,1008.92
2018-04-15T10:02:40.023Z,1009.25
2018-04-15T10:03:40.001Z,1009.05
2018-04-15T10:04:39.969Z,1008.99
2018-04-15T10:05:39.927Z,1008.12
2018-04-15T10:06:39.933Z,1008.10
2018-04-15T10:07:39.881Z,1009.16
2018-04-15T10:08:39.845Z,1009.12
2018-04-15T10:09:39.812Z,1009.09
2018-04-15T10:10:39.798Z,1008.93
2018-04-15T10:11:39.783Z,1008.86
2018-04-15T10:12:39.730Z,1008.80
2018-04-15T10:13:39.707Z,1008.79
2018-04-15T10:14:39.694Z,1008.78
2018-04-15T10:15:39.644Z,1008.81
2018-04-15T10:16:39.642Z,1008.91
2018-04-15T10:17:39.572Z,1008.88
2018-04-15T10:18:39.555Z,1008.16
2018-04-15T10:19:39.513Z,1008.07
2018-04-15T10:20:39.509Z,1008.08
2018-04-15T10:21:39.463Z,1008.06
2018-04-15T10:22:39.465Z,1007.98
2018-04-15T10:23:39.402Z,1008.00
2018-04-15T10:24:39.397Z,1008.83
2018-04-15T10:25:39.363Z,1008.83
2018-04-15T10:26:39.335Z,1008.81
2018-04-15T10:27:39.290Z,1008.85
2018-04-15T10:28:39.291Z,1008.83
2018-04-15T10:29:39.244Z,1008.56
2018-04-15T10:30:39.203Z,1008.71
2018-04-15T10:31:39.181Z,1008.82
2018-04-15T10:32:39.161Z,1008.78
2018-04-15T10:33:39.153Z,1008.80
2018-04-15T10:34:39.096Z,1008.79
2018-04-15T10:35:39.059Z,1008.83
2018-04-15T10:36:39.033Z,1008.91
2018-04-15T10:37:38.997Z,1008.89
2018-04-15T10:38:38.985Z,1008.85
2018-04-15T10:39:38.974Z,1008.82
2018-04-15T10:40:38.908Z,1008.74
2018-04-15T10:41:38.888Z,1008.72
2018-04-15T10:42:38.873Z,1008.78
2018-04-15T10:43:38.848Z,1008.79
2018-04-15T10:44:38.813Z,1008.73
2018-04-15T10:45:38.816Z,1008.80
2018-04-15T10:46:38.810Z,1008.73
2018-04-15T10:47:38.721Z,1008.64
2018-04-15T10:48:38.695Z,1008.64
2018-04-15T10:49:38.662Z,1008.60
2018-04-15T10:50:38.672Z,1008.60
2018-04-15T10:51:38.617Z,1007.83
2018-04-15T10:52:38.582Z,1007.75
2018-04-15T10:53:38.558Z,1007.71
2018-04-15T10:54:38.522Z,1007.66
2018-04-15T10:55:38.495Z,1007.64
2018-04-15T10:56:38.494Z,1008.32
2018-04-15T10:57:38.437Z,1008.36
2018-04-15T10:58:38.414Z,1008.39
2018-04-15T10:59:38.383Z,1008.37
2018-04-15T11:00:38.359Z,1007.65
2018-04-15T11:01:38.318Z,1007.58
2018-04-15T11:02:38.321Z,1007.49
2018-04-15T11:03:38.266Z,1007.46
2018-04-15T11:04:38.238Z,1007.55
2018-04-15T11:05:38.210Z,1008.41
2018-04-15T11:06:38.168Z,1008.46
2018-04-15T11:07:38.189Z,1008.41
2018-04-15T11:08:38.154Z,1008.17
2018-04-15T11:09:38.081Z,1007.75
2018-04-15T11:10:38.062Z,1007.70
2018-04-15T11:11:38.021Z,1007.74
2018-04-15T11:12:37.996Z,1008.37
2018-04-15T11:13:37.993Z,1008.31
2018-04-15T11:14:37.935Z,1008.46
2018-04-15T11:15:37.903Z,1008.50
2018-04-15T11:16:37.878Z,1008.49
2018-04-15T11:17:37.856Z,1008.51
2018-04-15T11:18:37.827Z,1008.53
2018-04-15T11:19:37.823Z,1008.02
2018-04-15T11:20:37.756Z,1008.44
2018-04-15T11:21:37.728Z,1008.45
2018-04-15T11:22:37.697Z,1008.56
2018-04-15T11:23:37.665Z,1007.74
2018-04-15T11:24:37.674Z,1007.68
2018-04-15T11:25:37.614Z,1007.67
2018-04-15T11:26:37.586Z,1008.10
2018-04-15T11:27:37.561Z,1008.51
2018-04-15T11:28:37.528Z,1008.56
2018-04-15T11:29:37.507Z,1008.48
2018-04-15T11:30:37.508Z,1008.36
2018-04-15T11:31:37.438Z,1007.61
2018-04-15T11:32:37.410Z,1007.55
2018-04-15T11:33:37.385Z,1008.27
2018-04-15T11:34:37.358Z,1008.29
2018-04-15T11:35:37.332Z,1007.86
2018-04-15T11:36:37.328Z,1008.09
2018-04-15T11:37:37.271Z,1007.87
2018-04-15T11:38:37.241Z,1007.58
2018-04-15T11:39:37.216Z,1007.50
2018-04-15T11:40:37.184Z,1007.49
2018-04-15T11:41:37.185Z,1008.08
2018-04-15T11:42:37.130Z,1007.97
2018-04-15T11:43:37.096Z,1007.90
2018-04-15T11:44:37.065Z,1007.39
2018-04-15T11:45:37.074Z,1007.58
2018-04-15T11:46:37.000Z,1007.27
2018-04-15T11:47:37.010Z,1007.28
2018-04-15T11:48:36.945Z,1007.27
2018-04-15T11:49:36.923Z,1007.28
2018-04-15T11:50:36.878Z,1007.87
2018-04-15T11:51:36.903Z,1007.28
2018-04-15T11:52:36.835Z,1007.27
2018-04-15T11:53:36.818Z,1007.37
2018-04-15T11:54:36.772Z,1007.28
2018-04-15T11:55:36.770Z,1007.21
2018-04-15T11:56:36.716Z,1007.18
2018-04-15T11:57:36.679Z,1007.81
2018-04-15T11:58:36.702Z,1007.80
2018-04-15T11:59:36.637Z,1007.89
2018-04-15T12:00:36.587Z,1007.85
2018-04-15T12:01:36.546Z,1007.22
2018-04-15T12:02:36.524Z,1007.19
2018-04-15T12:03:36.482Z,1007.17
2018-04-15T12:04:36.484Z,1007.10